createdAt,value
2022-11-10T00:00:46.334Z,0.00
2022-11-10T00:01:46.332Z,0.00
2022-11-10T00:02:46.331Z,0.00
2022-11-10T00:03:46.391Z,0.00
2022-11-10T00:04:46.287Z,0.00
2022-11-10T00:05:46.297Z,0.00
2022-11-10T00:06:46.305Z,0.00
2022-11-10T00:07:46.276Z,0.00
2022-11-10T00:08:46.252Z,0.00
2022-11-10T00:09:46.316Z,0.00
2022-11-10T00:10:46.242Z,0.00
2022-11-10T00:11:46.237Z,0.00
2022-11-10T00:12:46.216Z,0.00
2022-11-10T00:13:46.213Z,0.00
2022-11-10T00:14:46.173Z,0.00
2022-11-10T00:15:46.154Z,0.00
2022-11-10T00:16:46.220Z,0.00
2022-11-10T00:17:46.272Z,0.00
2022-11-10T00:18:46.144Z,0.00
2022-11-10T00:19:46.136Z,0.00
2022-11-10T00:20:46.107Z,0.00
2022-11-10T00:21:46.101Z,0.00
2022-11-10T00:22:47.055Z,0.00
2022-11-10T00:23:46.096Z,0.00
2022-11-10T00:24:46.062Z,0.00
2022-11-10T00:25:46.997Z,0.00
2022-11-10T00:26:46.070Z,0.00
2022-11-10T00:27:46.981Z,0.00
2022-11-10T00:28:47.008Z,0.00
2022-11-10T00:29:46.029Z,0.00
2022-11-10T00:30:47.000Z,0.00
2022-11-10T00:31:45.978Z,0.00
2022-11-10T00:32:45.978Z,0.00
2022-11-10T00:33:45.964Z,0.00
2022-11-10T00:34:45.948Z,0.00
2022-11-10T00:35:45.978Z,0.00
2022-11-10T00:36:46.010Z,0.00
2022-11-10T00:37:45.913Z,0.00
2022-11-10T00:38:45.900Z,0.00
2022-11-10T00:39:45.890Z,0.00
2022-11-10T00:40:45.919Z,0.00
2022-11-10T00:41:45.902Z,0.00
2022-11-10T00:42:45.850Z,0.00
2022-11-10T00:43:45.849Z,0.00
2022-11-10T00:44:45.858Z,0.00
2022-11-10T00:45:45.834Z,0.00
2022-11-10T00:46:45.827Z,0.00
2022-11-10T00:47:45.861Z,0.00
2022-11-10T00:48:45.803Z,0.00
2022-11-10T00:49:45.803Z,0.00
2022-11-10T00:50:45.792Z,0.00
2022-11-10T00:51:45.801Z,0.00
2022-11-10T00:52:46.015Z,0.00
2022-11-10T00:53:45.735Z,0.00
2022-11-10T00:54:45.760Z,0.00
2022-11-10T00:55:45.714Z,0.00
2022-11-10T00:56:45.740Z,0.00
2022-11-10T00:57:45.695Z,0.00
2022-11-10T00:58:45.745Z,0.00
2022-11-10T00:59:45.708Z,0.00
2022-11-10T01:00:45.692Z,0.00
2022-11-10T01:01:45.676Z,0.00
2022-11-10T01:02:45.684Z,0.00
2022-11-10T01:03:45.648Z,0.00
2022-11-10T01:04:45.646Z,0.00
2022-11-10T01:05:45.613Z,0.00
2022-11-10T01:06:45.613Z,0.00
2022-11-10T01:07:45.609Z,0.00
2022-11-10T01:08:45.598Z,0.00
2022-11-10T01:09:45.559Z,0.00
2022-11-10T01:10:45.577Z,0.00
2022-11-10T01:11:45.530Z,0.00
2022-11-10T01:12:45.551Z,0.00
2022-11-10T01:13:45.513Z,0.00
2022-11-10T01:14:45.519Z,0.00
2022-11-10T01:15:45.489Z,0.00
2022-11-10T01:16:45.480Z,0.00
2022-11-10T01:17:45.481Z,0.00
2022-11-10T01:18:45.474Z,0.00
2022-11-10T01:19:45.479Z,0.00
2022-11-10T01:20:45.448Z,0.00
2022-11-10T01:21:45.421Z,0.00
2022-11-10T01:22:45.423Z,0.00
2022-11-10T01:23:45.426Z,0.00
2022-11-10T01:24:45.418Z,0.00
2022-11-10T01:25:45.381Z,0.00
2022-11-10T01:26:45.361Z,0.00
2022-11-10T01:27:45.382Z,0.00
2022-11-10T01:28:45.350Z,0.00
2022-11-10T01:29:45.359Z,0.00
2022-11-10T01:30:45.318Z,0.00
2022-11-10T01:31:45.334Z,0.00
2022-11-10T01:32:45.305Z,0.00
2022-11-10T01:33:45.296Z,0.00
2022-11-10T01:34:45.364Z,0.00
2022-11-10T01:35:45.293Z,0.00
2022-11-10T01:36:45.319Z,0.00
2022-11-10T01:37:45.253Z,0.00
2022-11-10T01:38:45.264Z,0.00
2022-11-10T01:39:45.233Z,0.00
2022-11-10T01:40:45.276Z,0.00
2022-11-10T01:41:45.195Z,0.00
2022-11-10T01:42:45.215Z,0.00
2022-11-10T01:43:45.198Z,0.00
2022-11-10T01:44:45.182Z,0.00
2022-11-10T01:45:45.158Z,0.00
2022-11-10T01:46:45.151Z,0.00
2022-11-10T01:47:45.170Z,0.00
2022-11-10T01:48:45.121Z,0.00
2022-11-10T01:49:45.128Z,0.00
2022-11-10T01:50:45.098Z,0.00
2022-11-10T01:51:45.089Z,0.00
2022-11-10T01:52:45.078Z,0.00
2022-11-10T01:53:45.104Z,0.00
2022-11-10T01:54:45.057Z,0.00
2022-11-10T01:55:45.055Z,0.00
2022-11-10T01:56:45.049Z,0.00
2022-11-10T01:57:45.018Z,0.00
2022-11-10T01:58:45.021Z,0.00
2022-11-10T01:59:45.043Z,0.00
2022-11-10T02:00:45.081Z,0.00
2022-11-10T02:01:45.046Z,0.00
2022-11-10T02:02:44.972Z,0.00
2022-11-10T02:03:44.963Z,0.00
2022-11-10T02:04:44.951Z,0.00
2022-11-10T02:05:44.971Z,0.00
2022-11-10T02:06:44.959Z,0.00
2022-11-10T02:07:44.907Z,0.00
2022-11-10T02:08:44.902Z,0.00
2022-11-10T02:09:44.896Z,0.00
2022-11-10T02:10:44.902Z,0.00
2022-11-10T02:11:44.893Z,0.00
2022-11-10T02:12:44.910Z,0.00
2022-11-10T02:13:44.842Z,0.00
2022-11-10T02:14:44.834Z,0.00
2022-11-10T02:15:44.818Z,0.00
2022-11-10T02:16:44.806Z,0.00
2022-11-10T02:17:44.824Z,0.00
2022-11-10T02:18:44.800Z,0.00
2022-11-10T02:19:44.784Z,0.00
2022-11-10T02:20:44.763Z,0.00
2022-11-10T02:21:44.755Z,0.00
2022-11-10T02:22:44.946Z,0.00
2022-11-10T02:23:44.746Z,0.00
2022-11-10T02:24:44.727Z,0.00
2022-11-10T02:25:44.736Z,0.00
2022-11-10T02:26:44.739Z,0.00
2022-11-10T02:27:44.700Z,0.00
2022-11-10T02:28:44.712Z,0.00
2022-11-10T02:29:44.686Z,0.00
2022-11-10T02:30:44.660Z,0.00
2022-11-10T02:31:44.662Z,0.00
2022-11-10T02:32:44.647Z,0.00
2022-11-10T02:33:44.607Z,0.00
2022-11-10T02:34:45.553Z,0.00
2022-11-10T02:35:44.610Z,0.00
2022-11-10T02:36:44.613Z,0.00
2022-11-10T02:37:44.568Z,0.00
2022-11-10T02:38:44.561Z,0.00
2022-11-10T02:39:44.569Z,0.00
2022-11-10T02:40:44.602Z,0.00
2022-11-10T02:41:44.541Z,0.00
2022-11-10T02:42:44.510Z,0.00
2022-11-10T02:43:44.505Z,0.00
2022-11-10T02:44:44.506Z,0.00
2022-11-10T02:45:44.512Z,0.00
2022-11-10T02:46:44.471Z,0.00
2022-11-10T02:47:44.452Z,0.00
2022-11-10T02:48:44.441Z,0.00
2022-11-10T02:49:44.435Z,0.00
2022-11-10T02:50:44.413Z,0.00
2022-11-10T02:51:44.423Z,0.00
2022-11-10T02:52:44.402Z,0.00
2022-11-10T02:53:44.395Z,0.00
2022-11-10T02:54:44.404Z,0.00
2022-11-10T02:55:44.375Z,0.00
2022-11-10T02:56:44.382Z,0.00
2022-11-10T02:57:44.347Z,0.00
2022-11-10T02:58:44.369Z,0.00
2022-11-10T02:59:44.345Z,0.00
2022-11-10T03:00:44.314Z,0.00
2022-11-10T03:01:44.394Z,0.00
2022-11-10T03:02:44.348Z,0.00
2022-11-10T03:03:44.279Z,0.00
2022-11-10T03:04:45.222Z,0.00
2022-11-10T03:05:44.265Z,0.00
2022-11-10T03:06:44.280Z,0.00
2022-11-10T03:07:44.234Z,0.00
2022-11-10T03:08:44.240Z,0.00
2022-11-10T03:09:44.217Z,0.00
2022-11-10T03:10:44.197Z,0.00
2022-11-10T03:11:44.242Z,0.00
2022-11-10T03:12:44.184Z,0.00
2022-11-10T03:14:00.213Z,0.00
2022-11-10T03:14:45.147Z,0.00
2022-11-10T03:15:44.157Z,0.00
2022-11-10T03:16:44.128Z,0.00
2022-11-10T03:17:44.148Z,0.00
2022-11-10T03:18:44.108Z,0.00
2022-11-10T03:19:44.099Z,0.00
2022-11-10T03:20:44.119Z,0.00
2022-11-10T03:21:44.113Z,0.00
2022-11-10T03:22:44.066Z,0.00
2022-11-10T03:23:44.055Z,0.00
2022-11-10T03:24:44.100Z,0.00
2022-11-10T03:25:44.054Z,0.00
2022-11-10T03:26:44.025Z,0.00
2022-11-10T03:27:44.001Z,0.00
2022-11-10T03:28:43.981Z,0.00
2022-11-10T03:29:43.988Z,0.00
2022-11-10T03:30:43.970Z,0.00
2022-11-10T03:31:44.956Z,0.00
2022-11-10T03:32:43.943Z,0.00
2022-11-10T03:33:43.937Z,0.00
2022-11-10T03:34:43.924Z,0.00
2022-11-10T03:35:43.932Z,0.00
2022-11-10T03:36:43.915Z,0.00
2022-11-10T03:37:43.951Z,0.00
2022-11-10T03:38:43.893Z,0.00
2022-11-10T03:39:43.895Z,0.00
2022-11-10T03:41:17.070Z,0.00
2022-11-10T03:41:44.853Z,0.00
2022-11-10T03:42:43.825Z,0.00
2022-11-10T03:43:43.849Z,0.00
2022-11-10T03:44:43.836Z,0.00
2022-11-10T03:45:43.816Z,0.00
2022-11-10T03:46:43.886Z,0.00
2022-11-10T03:47:43.805Z,0.00
2022-11-10T03:48:47.399Z,0.00
2022-11-10T03:49:44.766Z,0.00
2022-11-10T03:50:43.763Z,0.00
2022-11-10T03:51:43.730Z,0.00
2022-11-10T03:52:43.726Z,0.00
2022-11-10T03:53:43.740Z,0.00
2022-11-10T03:54:43.717Z,0.00
2022-11-10T03:55:43.730Z,0.00
2022-11-10T03:56:43.680Z,0.00
2022-11-10T03:57:43.678Z,0.00
2022-11-10T03:58:43.680Z,0.00
2022-11-10T03:59:43.682Z,0.00
2022-11-10T04:00:43.629Z,0.00
2022-11-10T04:01:43.698Z,0.00
2022-11-10T04:02:43.613Z,0.00
2022-11-10T04:03:46.282Z,0.00
2022-11-10T04:04:45.551Z,0.00
2022-11-10T04:05:43.582Z,0.00
2022-11-10T04:06:43.599Z,0.00
2022-11-10T04:07:43.551Z,0.00
2022-11-10T04:08:43.533Z,0.00
2022-11-10T04:09:43.549Z,0.00
2022-11-10T04:10:43.522Z,0.00
2022-11-10T04:11:43.516Z,0.00
2022-11-10T04:12:43.509Z,0.00
2022-11-10T04:13:43.515Z,0.00
2022-11-10T04:14:43.481Z,0.00
2022-11-10T04:15:43.483Z,0.00
2022-11-10T04:16:43.460Z,0.00
2022-11-10T04:17:43.471Z,0.00
2022-11-10T04:18:43.437Z,0.00
2022-11-10T04:19:43.449Z,0.00
2022-11-10T04:20:43.417Z,0.00
2022-11-10T04:21:44.899Z,0.00
2022-11-10T04:22:43.455Z,0.00
2022-11-10T04:23:43.393Z,0.00
2022-11-10T04:24:43.364Z,0.00
2022-11-10T04:25:43.384Z,0.00
2022-11-10T04:26:43.334Z,0.00
2022-11-10T04:27:43.325Z,0.00
2022-11-10T04:28:43.363Z,0.00
2022-11-10T04:29:43.301Z,0.00
2022-11-10T04:30:43.289Z,0.00
2022-11-10T04:31:43.297Z,0.00
2022-11-10T04:32:43.285Z,0.00
2022-11-10T04:33:43.306Z,0.00
2022-11-10T04:34:43.230Z,0.00
2022-11-10T04:35:43.266Z,0.00
2022-11-10T04:36:43.217Z,0.00
2022-11-10T04:37:43.208Z,0.00
2022-11-10T04:38:43.210Z,0.00
2022-11-10T04:39:43.194Z,0.00
2022-11-10T04:40:43.168Z,0.00
2022-11-10T04:41:43.187Z,0.00
2022-11-10T04:42:43.149Z,0.00
2022-11-10T04:43:43.148Z,0.00
2022-11-10T04:44:43.148Z,0.00
2022-11-10T04:45:43.123Z,0.00
2022-11-10T04:46:43.101Z,0.00
2022-11-10T04:47:43.091Z,0.00
2022-11-10T04:48:43.101Z,0.00
2022-11-10T04:49:43.084Z,0.00
2022-11-10T04:50:43.077Z,0.00
2022-11-10T04:51:43.076Z,0.00
2022-11-10T04:52:43.038Z,0.00
2022-11-10T04:53:44.040Z,0.00
2022-11-10T04:54:43.014Z,0.00
2022-11-10T04:55:43.012Z,0.00
2022-11-10T04:56:42.993Z,0.00
2022-11-10T04:57:42.991Z,0.00
2022-11-10T04:58:42.971Z,0.00
2022-11-10T04:59:43.012Z,0.00
2022-11-10T05:00:43.024Z,0.00
2022-11-10T05:01:42.970Z,0.00
2022-11-10T05:02:42.954Z,0.00
2022-11-10T05:03:42.918Z,0.00
2022-11-10T05:04:42.915Z,0.00
2022-11-10T05:05:42.941Z,0.00
2022-11-10T05:06:42.934Z,0.00
2022-11-10T05:07:42.908Z,0.00
2022-11-10T05:08:42.861Z,0.00
2022-11-10T05:09:42.851Z,0.00
2022-11-10T05:10:42.866Z,0.00
2022-11-10T05:11:42.827Z,0.00
2022-11-10T05:12:42.838Z,0.00
2022-11-10T05:13:42.801Z,0.00
2022-11-10T05:14:42.799Z,0.00
2022-11-10T05:15:42.822Z,0.00
2022-11-10T05:16:42.777Z,0.00
2022-11-10T05:17:42.767Z,0.00
2022-11-10T05:18:42.760Z,0.00
2022-11-10T05:19:42.744Z,0.00
2022-11-10T05:20:42.750Z,0.00
2022-11-10T05:21:42.759Z,0.00
2022-11-10T05:22:47.946Z,0.00
2022-11-10T05:23:43.700Z,0.00
2022-11-10T05:24:42.694Z,0.00
2022-11-10T05:25:42.663Z,0.00
2022-11-10T05:26:43.609Z,0.00
2022-11-10T05:27:42.840Z,0.00
2022-11-10T05:28:42.641Z,0.00
2022-11-10T05:29:42.631Z,0.00
2022-11-10T05:30:42.620Z,0.00
2022-11-10T05:31:42.604Z,0.00
2022-11-10T05:32:42.643Z,0.00
2022-11-10T05:33:42.633Z,0.00
2022-11-10T05:34:42.571Z,0.00
2022-11-10T05:35:42.574Z,0.00
2022-11-10T05:36:42.561Z,0.00
2022-11-10T05:37:42.546Z,0.00
2022-11-10T05:38:43.854Z,0.00
2022-11-10T05:39:42.551Z,0.00
2022-11-10T05:40:42.518Z,0.00
2022-11-10T05:41:42.498Z,0.00
2022-11-10T05:42:42.487Z,0.00
2022-11-10T05:43:42.494Z,0.00
2022-11-10T05:44:42.492Z,0.00
2022-11-10T05:45:42.455Z,0.00
2022-11-10T05:46:42.469Z,0.00
2022-11-10T05:47:42.434Z,0.00
2022-11-10T05:48:43.387Z,0.00
2022-11-10T05:49:42.446Z,0.00
2022-11-10T05:50:42.392Z,0.00
2022-11-10T05:51:43.343Z,0.00
2022-11-10T05:52:47.596Z,0.00
2022-11-10T05:53:43.355Z,0.00
2022-11-10T05:54:42.337Z,0.00
2022-11-10T05:55:42.356Z,0.00
2022-11-10T05:56:42.320Z,0.00
2022-11-10T05:57:42.342Z,0.00
2022-11-10T05:58:42.300Z,0.00
2022-11-10T05:59:42.291Z,0.00
2022-11-10T06:00:42.309Z,0.00
2022-11-10T06:01:42.266Z,0.00
2022-11-10T06:02:42.252Z,0.00
2022-11-10T06:03:42.273Z,0.00
2022-11-10T06:04:42.255Z,0.00
2022-11-10T06:05:42.229Z,0.00
2022-11-10T06:06:42.285Z,0.00
2022-11-10T06:07:42.228Z,0.00
2022-11-10T06:08:42.194Z,0.00
2022-11-10T06:09:42.183Z,0.00
2022-11-10T06:10:42.179Z,0.00
2022-11-10T06:11:42.181Z,0.00
2022-11-10T06:12:42.169Z,0.00
2022-11-10T06:13:42.156Z,0.00
2022-11-10T06:14:42.153Z,0.00
2022-11-10T06:15:47.562Z,0.00
2022-11-10T06:16:43.100Z,4.00
2022-11-10T06:17:42.111Z,4.00
2022-11-10T06:18:42.093Z,4.00
2022-11-10T06:19:42.074Z,4.00
2022-11-10T06:20:42.062Z,4.00
2022-11-10T06:21:42.033Z,8.00
2022-11-10T06:22:42.048Z,4.00
2022-11-10T06:23:42.065Z,8.00
2022-11-10T06:24:42.005Z,8.00
2022-11-10T06:25:41.991Z,8.00
2022-11-10T06:26:42.035Z,8.00
2022-11-10T06:27:41.963Z,12.00
2022-11-10T06:28:41.976Z,12.00
2022-11-10T06:29:41.953Z,12.00
2022-11-10T06:30:41.958Z,16.00
2022-11-10T06:31:41.938Z,16.00
2022-11-10T06:32:41.963Z,20.00
2022-11-10T06:33:41.919Z,24.00
2022-11-10T06:34:41.905Z,24.00
2022-11-10T06:35:41.894Z,28.00
2022-11-10T06:36:41.901Z,28.00
2022-11-10T06:37:41.881Z,32.00
2022-11-10T06:38:41.854Z,36.00
2022-11-10T06:39:41.846Z,40.00
2022-11-10T06:40:41.832Z,48.00
2022-11-10T06:41:41.827Z,52.00
2022-11-10T06:42:42.786Z,52.00
2022-11-10T06:43:41.816Z,60.00
2022-11-10T06:44:41.782Z,64.00
2022-11-10T06:45:41.765Z,72.00
2022-11-10T06:46:42.523Z,76.00
2022-11-10T06:47:41.772Z,80.00
2022-11-10T06:48:41.740Z,88.00
2022-11-10T06:49:41.912Z,92.00
2022-11-10T06:50:41.708Z,104.00
2022-11-10T06:51:41.761Z,108.00
2022-11-10T06:52:41.733Z,112.00
2022-11-10T06:53:41.677Z,120.00
2022-11-10T06:54:41.896Z,124.00
2022-11-10T06:55:41.654Z,132.00
2022-11-10T06:56:41.790Z,140.00
2022-11-10T06:57:41.645Z,144.00
2022-11-10T06:58:41.655Z,152.00
2022-11-10T06:59:41.845Z,156.00
2022-11-10T07:00:41.656Z,164.00
2022-11-10T07:01:42.613Z,168.00
2022-11-10T07:02:41.894Z,176.00
2022-11-10T07:04:05.215Z,180.00
2022-11-10T07:04:42.636Z,188.00
2022-11-10T07:05:41.549Z,192.00
2022-11-10T07:06:41.571Z,204.00
2022-11-10T07:07:41.523Z,204.00
2022-11-10T07:08:41.630Z,220.00
2022-11-10T07:09:41.535Z,224.00
2022-11-10T07:10:41.492Z,236.00
2022-11-10T07:11:42.424Z,240.00
2022-11-10T07:12:41.516Z,248.00
2022-11-10T07:13:41.489Z,256.00
2022-11-10T07:14:41.447Z,264.00
2022-11-10T07:15:41.436Z,268.00
2022-11-10T07:16:41.465Z,272.00
2022-11-10T07:17:42.431Z,276.00
2022-11-10T07:18:41.407Z,284.00
2022-11-10T07:19:41.850Z,288.00
2022-11-10T07:20:42.334Z,292.00
2022-11-10T07:21:41.376Z,292.00
2022-11-10T07:22:41.377Z,300.00
2022-11-10T07:23:41.339Z,308.00
2022-11-10T07:24:41.360Z,320.00
2022-11-10T07:25:41.320Z,324.00
2022-11-10T07:26:41.324Z,332.00
2022-11-10T07:27:41.300Z,340.00
2022-11-10T07:28:41.313Z,344.00
2022-11-10T07:29:41.298Z,344.00
2022-11-10T07:30:41.289Z,348.00
2022-11-10T07:31:41.260Z,352.00
2022-11-10T07:32:41.249Z,360.00
2022-11-10T07:33:41.748Z,368.00
2022-11-10T07:34:41.543Z,368.00
2022-11-10T07:35:41.563Z,380.00
2022-11-10T07:36:41.205Z,384.00
2022-11-10T07:37:41.181Z,392.00
2022-11-10T07:38:41.211Z,396.00
2022-11-10T07:39:41.180Z,400.00
2022-11-10T07:40:41.150Z,408.00
2022-11-10T07:41:41.152Z,408.00
2022-11-10T07:42:41.297Z,412.00
2022-11-10T07:43:41.131Z,416.00
2022-11-10T07:44:41.104Z,420.00
2022-11-10T07:45:41.115Z,420.00
2022-11-10T07:46:41.277Z,424.00
2022-11-10T07:47:41.124Z,432.00
2022-11-10T07:48:41.077Z,440.00
2022-11-10T07:49:41.083Z,444.00
2022-11-10T07:50:41.063Z,444.00
2022-11-10T07:51:41.044Z,452.00
2022-11-10T07:52:41.021Z,456.00
2022-11-10T07:53:41.023Z,464.00
2022-11-10T07:54:40.993Z,468.00
2022-11-10T07:55:41.005Z,468.00
2022-11-10T07:56:40.997Z,472.00
2022-11-10T07:57:40.969Z,472.00
2022-11-10T07:58:40.966Z,476.00
2022-11-10T07:59:40.971Z,476.00
2022-11-10T08:00:40.940Z,476.00
2022-11-10T08:01:41.041Z,480.00
2022-11-10T08:02:40.895Z,484.00
2022-11-10T08:03:40.894Z,484.00
2022-11-10T08:04:40.897Z,492.00
2022-11-10T08:05:40.886Z,492.00
2022-11-10T08:06:41.010Z,492.00
2022-11-10T08:07:40.923Z,496.00
2022-11-10T08:08:40.851Z,500.00
2022-11-10T08:09:40.826Z,504.00
2022-11-10T08:10:40.835Z,508.00
2022-11-10T08:11:40.802Z,512.00
2022-11-10T08:12:40.800Z,516.00
2022-11-10T08:13:41.750Z,508.00
2022-11-10T08:14:41.329Z,524.00
2022-11-10T08:15:40.812Z,524.00
2022-11-10T08:16:41.717Z,532.00
2022-11-10T08:17:40.780Z,532.00
2022-11-10T08:18:40.933Z,536.00
2022-11-10T08:19:40.785Z,540.00
2022-11-10T08:20:40.713Z,544.00
2022-11-10T08:21:40.694Z,548.00
2022-11-10T08:22:40.699Z,552.00
2022-11-10T08:23:40.663Z,556.00
2022-11-10T08:24:40.669Z,560.00
2022-11-10T08:25:41.453Z,560.00
2022-11-10T08:26:40.633Z,568.00
2022-11-10T08:27:40.667Z,568.00
2022-11-10T08:28:40.611Z,568.00
2022-11-10T08:29:40.804Z,568.00
2022-11-10T08:30:40.595Z,572.00
2022-11-10T08:31:40.589Z,576.00
2022-11-10T08:32:40.579Z,584.00
2022-11-10T08:33:40.595Z,584.00
2022-11-10T08:34:40.551Z,584.00
2022-11-10T08:35:40.593Z,592.00
2022-11-10T08:36:40.533Z,592.00
2022-11-10T08:37:40.548Z,600.00
2022-11-10T08:38:40.530Z,596.00
2022-11-10T08:39:40.484Z,600.00
2022-11-10T08:40:40.525Z,604.00
2022-11-10T08:41:40.454Z,612.00
2022-11-10T08:42:40.472Z,608.00
2022-11-10T08:43:40.462Z,612.00
2022-11-10T08:44:40.436Z,620.00
2022-11-10T08:45:40.489Z,624.00
2022-11-10T08:46:40.456Z,624.00
2022-11-10T08:47:40.401Z,632.00
2022-11-10T08:48:40.398Z,632.00
2022-11-10T08:49:41.327Z,636.00
2022-11-10T08:50:40.385Z,632.00
2022-11-10T08:51:40.913Z,636.00
2022-11-10T08:52:40.474Z,636.00
2022-11-10T08:53:41.796Z,636.00
2022-11-10T08:54:40.323Z,636.00
2022-11-10T08:55:40.415Z,640.00
2022-11-10T08:56:40.342Z,644.00
2022-11-10T08:57:40.510Z,644.00
2022-11-10T08:58:50.164Z,648.00
2022-11-10T08:59:41.265Z,652.00
2022-11-10T09:00:40.259Z,656.00
2022-11-10T09:01:40.250Z,660.00
2022-11-10T09:02:40.251Z,652.00
2022-11-10T09:03:40.412Z,648.00
2022-11-10T09:04:40.308Z,652.00
2022-11-10T09:05:40.226Z,648.00
2022-11-10T09:06:40.776Z,656.00
2022-11-10T09:07:40.212Z,664.00
2022-11-10T09:08:40.241Z,664.00
2022-11-10T09:09:40.142Z,664.00
2022-11-10T09:10:40.166Z,668.00
2022-11-10T09:11:40.133Z,668.00
2022-11-10T09:12:40.547Z,672.00
2022-11-10T09:13:40.125Z,676.00
2022-11-10T09:14:40.137Z,676.00
2022-11-10T09:15:40.099Z,676.00
2022-11-10T09:16:40.093Z,676.00
2022-11-10T09:17:40.064Z,680.00
2022-11-10T09:18:40.066Z,680.00
2022-11-10T09:19:40.103Z,684.00
2022-11-10T09:20:40.086Z,684.00
2022-11-10T09:21:40.036Z,684.00
2022-11-10T09:22:40.005Z,688.00
2022-11-10T09:23:39.985Z,696.00
2022-11-10T09:24:39.976Z,700.00
2022-11-10T09:25:40.010Z,700.00
2022-11-10T09:26:40.017Z,708.00
2022-11-10T09:27:39.968Z,712.00
2022-11-10T09:28:39.940Z,716.00
2022-11-10T09:29:39.949Z,724.00
2022-11-10T09:30:39.919Z,744.00
2022-11-10T09:31:39.940Z,772.00
2022-11-10T09:32:39.926Z,788.00
2022-11-10T09:33:39.949Z,800.00
2022-11-10T09:34:39.868Z,812.00
2022-11-10T09:35:39.870Z,808.00
2022-11-10T09:36:39.871Z,800.00
2022-11-10T09:37:39.844Z,784.00
2022-11-10T09:38:39.827Z,776.00
2022-11-10T09:39:39.842Z,768.00
2022-11-10T09:40:39.802Z,768.00
2022-11-10T09:41:39.808Z,768.00
2022-11-10T09:42:39.772Z,764.00
2022-11-10T09:43:39.772Z,764.00
2022-11-10T09:44:39.781Z,772.00
2022-11-10T09:45:39.781Z,772.00
2022-11-10T09:46:39.758Z,780.00
2022-11-10T09:47:56.856Z,792.00
2022-11-10T09:48:41.714Z,812.00
2022-11-10T09:49:39.713Z,836.00
2022-11-10T09:50:39.715Z,852.00
2022-11-10T09:51:42.817Z,860.00
2022-11-10T09:52:40.666Z,856.00
2022-11-10T09:53:39.644Z,848.00
2022-11-10T09:54:39.684Z,840.00
2022-11-10T09:55:39.643Z,816.00
2022-11-10T09:56:39.622Z,800.00
2022-11-10T09:57:40.912Z,788.00
2022-11-10T09:58:39.594Z,784.00
2022-11-10T09:59:39.634Z,776.00
2022-11-10T10:00:39.565Z,776.00
2022-11-10T10:01:39.628Z,772.00
2022-11-10T10:02:41.018Z,764.00
2022-11-10T10:03:39.556Z,772.00
2022-11-10T10:04:43.214Z,776.00
2022-11-10T10:05:40.570Z,768.00
2022-11-10T10:07:04.803Z,772.00
2022-11-10T10:07:40.518Z,776.00
2022-11-10T10:08:39.487Z,776.00
2022-11-10T10:09:39.482Z,780.00
2022-11-10T10:10:39.458Z,776.00
2022-11-10T10:11:39.499Z,784.00
2022-11-10T10:12:39.438Z,784.00
2022-11-10T10:13:39.428Z,792.00
2022-11-10T10:14:39.423Z,796.00
2022-11-10T10:15:39.399Z,800.00
2022-11-10T10:16:39.398Z,804.00
2022-11-10T10:17:41.365Z,804.00
2022-11-10T10:18:39.379Z,808.00
2022-11-10T10:19:39.996Z,812.00
2022-11-10T10:20:39.361Z,812.00
2022-11-10T10:21:39.339Z,816.00
2022-11-10T10:22:39.342Z,824.00
2022-11-10T10:24:07.695Z,824.00
2022-11-10T10:24:40.341Z,820.00
2022-11-10T10:25:39.304Z,820.00
2022-11-10T10:26:39.312Z,820.00
2022-11-10T10:27:39.274Z,820.00
2022-11-10T10:28:39.263Z,828.00
2022-11-10T10:29:39.252Z,828.00
2022-11-10T10:30:39.235Z,828.00
2022-11-10T10:31:39.223Z,836.00
2022-11-10T10:32:39.266Z,836.00
2022-11-10T10:33:39.205Z,844.00
2022-11-10T10:34:39.196Z,848.00
2022-11-10T10:35:41.769Z,848.00
2022-11-10T10:36:39.175Z,852.00
2022-11-10T10:37:39.421Z,848.00
2022-11-10T10:38:39.166Z,852.00
2022-11-10T10:39:39.137Z,852.00
2022-11-10T10:40:39.156Z,860.00
2022-11-10T10:41:39.118Z,856.00
2022-11-10T10:42:39.143Z,856.00
2022-11-10T10:43:39.105Z,856.00
2022-11-10T10:44:39.183Z,860.00
2022-11-10T10:45:39.135Z,860.00
2022-11-10T10:46:39.090Z,864.00
2022-11-10T10:47:39.998Z,868.00
2022-11-10T10:48:39.042Z,872.00
2022-11-10T10:49:39.069Z,844.00
2022-11-10T10:50:40.469Z,880.00
2022-11-10T10:51:39.131Z,880.00
2022-11-10T10:52:39.943Z,884.00
2022-11-10T10:53:38.991Z,888.00
2022-11-10T10:54:38.959Z,892.00
2022-11-10T10:55:38.980Z,896.00
2022-11-10T10:56:38.951Z,908.00
2022-11-10T10:57:38.941Z,908.00
2022-11-10T10:58:38.919Z,924.00
2022-11-10T10:59:38.929Z,924.00
2022-11-10T11:00:38.893Z,916.00
2022-11-10T11:01:39.081Z,920.00
2022-11-10T11:02:38.874Z,924.00
2022-11-10T11:03:38.930Z,940.00
2022-11-10T11:04:38.869Z,940.00
2022-11-10T11:05:38.897Z,940.00
2022-11-10T11:06:38.895Z,936.00
2022-11-10T11:07:38.829Z,956.00
2022-11-10T11:08:38.819Z,964.00
2022-11-10T11:09:38.796Z,968.00
2022-11-10T11:10:38.793Z,980.00
2022-11-10T11:11:38.812Z,988.00
2022-11-10T11:12:38.775Z,992.00
2022-11-10T11:13:38.760Z,996.00
2022-11-10T11:14:43.328Z,996.00
2022-11-10T11:15:39.723Z,1012.00
2022-11-10T11:16:38.754Z,1028.00
2022-11-10T11:17:38.749Z,1056.00
2022-11-10T11:18:39.670Z,1020.00
2022-11-10T11:19:38.687Z,1028.00
2022-11-10T11:20:38.671Z,1056.00
2022-11-10T11:21:38.680Z,1040.00
2022-11-10T11:22:38.678Z,1056.00
2022-11-10T11:23:38.637Z,1064.00
2022-11-10T11:24:38.624Z,1048.00
2022-11-10T11:25:38.630Z,1032.00
2022-11-10T11:26:38.636Z,1104.00
2022-11-10T11:27:38.597Z,1076.00
2022-11-10T11:28:39.524Z,1016.00
2022-11-10T11:29:38.611Z,1124.00
2022-11-10T11:30:38.570Z,1040.00
2022-11-10T11:31:42.890Z,1036.00
2022-11-10T11:32:38.562Z,1020.00
2022-11-10T11:33:38.529Z,1088.00
2022-11-10T11:34:38.554Z,1120.00
2022-11-10T11:35:38.522Z,1240.00
2022-11-10T11:36:38.492Z,1080.00
2022-11-10T11:37:38.482Z,1092.00
2022-11-10T11:38:38.952Z,1108.00
2022-11-10T11:39:38.496Z,1148.00
2022-11-10T11:40:38.445Z,1124.00
2022-11-10T11:41:38.452Z,1108.00
2022-11-10T11:42:38.414Z,1324.00
2022-11-10T11:43:38.422Z,1296.00
2022-11-10T11:44:38.419Z,1136.00
2022-11-10T11:45:38.393Z,1064.00
2022-11-10T11:46:38.402Z,1096.00
2022-11-10T11:47:38.365Z,1184.00
2022-11-10T11:48:38.357Z,1376.00
2022-11-10T11:49:38.348Z,1336.00
2022-11-10T11:50:38.373Z,1288.00
2022-11-10T11:51:38.345Z,1964.00
2022-11-10T11:52:38.407Z,1252.00
2022-11-10T11:53:38.295Z,948.00
2022-11-10T11:54:38.276Z,1312.00
2022-11-10T11:55:38.278Z,1220.00
2022-11-10T11:56:38.287Z,1200.00
2022-11-10T11:57:40.210Z,1232.00
2022-11-10T11:58:38.252Z,1248.00
2022-11-10T11:59:38.237Z,1240.00
2022-11-10T12:00:38.305Z,1380.00
2022-11-10T12:01:38.219Z,1388.00
2022-11-10T12:02:38.287Z,1432.00
2022-11-10T12:03:38.253Z,1516.00
2022-11-10T12:04:38.176Z,1640.00
2022-11-10T12:05:38.158Z,1992.00
2022-11-10T12:06:38.187Z,7180.00
2022-11-10T12:07:38.162Z,11752.00
2022-11-10T12:08:38.392Z,6024.00
2022-11-10T12:09:38.123Z,2036.00
2022-11-10T12:10:42.821Z,2376.00
2022-11-10T12:11:39.141Z,2204.00
2022-11-10T12:12:38.102Z,2092.00
2022-11-10T12:13:38.084Z,1912.00
2022-11-10T12:14:38.056Z,1784.00
2022-11-10T12:15:38.056Z,1960.00
2022-11-10T12:16:38.048Z,1752.00
2022-11-10T12:17:38.042Z,1856.00
2022-11-10T12:18:38.021Z,2272.00
2022-11-10T12:19:38.008Z,2568.00
2022-11-10T12:20:37.998Z,3440.00
2022-11-10T12:21:38.023Z,2952.00
2022-11-10T12:22:37.966Z,3880.00
2022-11-10T12:23:37.966Z,3932.00
2022-11-10T12:24:37.943Z,3232.00
2022-11-10T12:25:37.936Z,3024.00
2022-11-10T12:26:37.935Z,2588.00
2022-11-10T12:27:37.934Z,3044.00
2022-11-10T12:28:37.904Z,3708.00
2022-11-10T12:29:37.917Z,4716.00
2022-11-10T12:30:37.907Z,5216.00
2022-11-10T12:31:37.870Z,6592.00
2022-11-10T12:32:37.993Z,7748.00
2022-11-10T12:33:37.856Z,7000.00
2022-11-10T12:34:37.901Z,5704.00
2022-11-10T12:35:37.824Z,4292.00
2022-11-10T12:36:37.809Z,4104.00
2022-11-10T12:37:37.812Z,4188.00
2022-11-10T12:38:37.787Z,4224.00
2022-11-10T12:39:37.810Z,4776.00
2022-11-10T12:40:41.594Z,4580.00
2022-11-10T12:41:37.769Z,4360.00
2022-11-10T12:42:37.760Z,3764.00
2022-11-10T12:43:37.756Z,4092.00
2022-11-10T12:44:37.748Z,4908.00
2022-11-10T12:45:37.752Z,4896.00
2022-11-10T12:46:38.641Z,4064.00
2022-11-10T12:47:37.692Z,2884.00
2022-11-10T12:48:37.700Z,2900.00
2022-11-10T12:49:38.623Z,3584.00
2022-11-10T12:50:37.656Z,3936.00